SWA184 PHOG-PHNL
Flight info
| Callsign | SWA184 |
|---|---|
| Flight time | 0h 25m |
| Altitude | 14000 |
| Route | MAUI5 OGG LNY JULLE5 |
| Aircraft | B738/M-SDE2E3FGHIRWXY/LB1 |
Departure
| Time | 2026-04-21 19:29 |
|---|---|
| Airport | Kahului International Airport (PHOG) |
Arrival
| Time | 2026-04-21 19:54 |
|---|---|
| Airport | Daniel K. Inouye International Airport (PHNL) |
| Time | Latitude | Longitude | Altitude | Speed | Heading |
|---|---|---|---|---|---|
| 2026-04-21 18:59 | 20.89196 | -156.43747 | 44 ft | 0 kts | 305° |
| 2026-04-21 19:23 | 20.89182 | -156.43726 | 41 ft | 4 kts | 305° |
| 2026-04-21 19:23 | 20.89166 | -156.43702 | 39 ft | 4 kts | 305° |
| 2026-04-21 19:24 | 20.89153 | -156.43683 | 42 ft | 4 kts | 299° |
| 2026-04-21 19:24 | 20.89145 | -156.43657 | 44 ft | 4 kts | 267° |
| 2026-04-21 19:24 | 20.89151 | -156.43630 | 41 ft | 4 kts | 242° |
| 2026-04-21 19:24 | 20.89167 | -156.43606 | 41 ft | 4 kts | 221° |
| 2026-04-21 19:25 | 20.89187 | -156.43590 | 42 ft | 4 kts | 215° |
| 2026-04-21 19:25 | 20.89209 | -156.43574 | 44 ft | 4 kts | 215° |
| 2026-04-21 19:25 | 20.89218 | -156.43567 | 42 ft | 0 kts | 215° |
| 2026-04-21 19:27 | 20.89214 | -156.43570 | 44 ft | 3 kts | 215° |
| 2026-04-21 19:27 | 20.89173 | -156.43601 | 39 ft | 13 kts | 216° |
| 2026-04-21 19:27 | 20.89079 | -156.43672 | 44 ft | 18 kts | 215° |
| 2026-04-21 19:28 | 20.88971 | -156.43684 | 44 ft | 18 kts | 129° |
| 2026-04-21 19:28 | 20.88993 | -156.43574 | 43 ft | 17 kts | 34° |
| 2026-04-21 19:28 | 20.89127 | -156.43476 | 44 ft | 51 kts | 35° |
| 2026-04-21 19:28 | 20.89657 | -156.43082 | 44 ft | 125 kts | 35° |
| 2026-04-21 19:29 | 20.90494 | -156.42451 | 208 ft | 159 kts | 33° |
| 2026-04-21 19:29 | 20.91507 | -156.41959 | 841 ft | 165 kts | 12° |
| 2026-04-21 19:29 | 20.92678 | -156.41759 | 1450 ft | 170 kts | 8° |
| 2026-04-21 19:29 | 20.93862 | -156.41561 | 2128 ft | 183 kts | 9° |
| 2026-04-21 19:30 | 20.95254 | -156.41321 | 2463 ft | 218 kts | 9° |
| 2026-04-21 19:30 | 20.96816 | -156.41051 | 2884 ft | 237 kts | 9° |
| 2026-04-21 19:30 | 20.98477 | -156.40780 | 3512 ft | 247 kts | 4° |
| 2026-04-21 19:30 | 21.00223 | -156.41120 | 4064 ft | 266 kts | 334° |
| 2026-04-21 19:31 | 21.01646 | -156.42397 | 5021 ft | 272 kts | 306° |
| 2026-04-21 19:31 | 21.02478 | -156.44215 | 6061 ft | 274 kts | 291° |
| 2026-04-21 19:31 | 21.03131 | -156.46143 | 7053 ft | 277 kts | 290° |
| 2026-04-21 19:31 | 21.03776 | -156.48096 | 8088 ft | 279 kts | 289° |
| 2026-04-21 19:32 | 21.04350 | -156.50081 | 9183 ft | 281 kts | 277° |
| 2026-04-21 19:32 | 21.04352 | -156.52184 | 10259 ft | 284 kts | 267° |
| 2026-04-21 19:32 | 21.04208 | -156.54349 | 10794 ft | 309 kts | 266° |
| 2026-04-21 19:32 | 21.04019 | -156.56759 | 11004 ft | 340 kts | 265° |
| 2026-04-21 19:33 | 21.03877 | -156.58493 | 11361 ft | 350 kts | 265° |
| 2026-04-21 19:33 | 21.03593 | -156.61972 | 12507 ft | 357 kts | 266° |
| 2026-04-21 19:33 | 21.03380 | -156.64624 | 13460 ft | 361 kts | 266° |
| 2026-04-21 19:33 | 21.03169 | -156.67291 | 13876 ft | 360 kts | 266° |
| 2026-04-21 19:34 | 21.03026 | -156.69113 | 13968 ft | 369 kts | 266° |
| 2026-04-21 19:34 | 21.02813 | -156.71865 | 13989 ft | 380 kts | 266° |
| 2026-04-21 19:34 | 21.02595 | -156.74688 | 13995 ft | 379 kts | 266° |
| 2026-04-21 19:34 | 21.02377 | -156.77498 | 14001 ft | 379 kts | 266° |
| 2026-04-21 19:35 | 21.02159 | -156.80305 | 14010 ft | 378 kts | 266° |
| 2026-04-21 19:35 | 21.01723 | -156.85916 | 14014 ft | 378 kts | 266° |
| 2026-04-21 19:35 | 21.01433 | -156.89637 | 14022 ft | 379 kts | 266° |
| 2026-04-21 19:36 | 21.01285 | -156.91535 | 14018 ft | 379 kts | 266° |
| 2026-04-21 19:36 | 21.01065 | -156.94346 | 14019 ft | 379 kts | 266° |
| 2026-04-21 19:36 | 21.00845 | -156.97157 | 14021 ft | 379 kts | 266° |
| 2026-04-21 19:36 | 21.00627 | -156.99934 | 14020 ft | 379 kts | 266° |
| 2026-04-21 19:37 | 21.00405 | -157.02756 | 14020 ft | 379 kts | 266° |
| 2026-04-21 19:37 | 21.00183 | -157.05573 | 14019 ft | 379 kts | 266° |
| 2026-04-21 19:37 | 20.99961 | -157.08384 | 14015 ft | 379 kts | 266° |
| 2026-04-21 19:37 | 20.99738 | -157.11197 | 14012 ft | 379 kts | 266° |
| 2026-04-21 19:38 | 20.99515 | -157.14010 | 14009 ft | 379 kts | 266° |
| 2026-04-21 19:38 | 20.99324 | -157.16410 | 14001 ft | 379 kts | 266° |
| 2026-04-21 19:38 | 20.99109 | -157.19119 | 13997 ft | 379 kts | 266° |
| 2026-04-21 19:38 | 20.98884 | -157.21932 | 13992 ft | 379 kts | 266° |
| 2026-04-21 19:39 | 20.98659 | -157.24743 | 13989 ft | 379 kts | 266° |
| 2026-04-21 19:39 | 20.98433 | -157.27562 | 13984 ft | 380 kts | 266° |
| 2026-04-21 19:39 | 20.98212 | -157.30318 | 13973 ft | 368 kts | 266° |
| 2026-04-21 19:39 | 20.97997 | -157.32972 | 13971 ft | 349 kts | 266° |
| 2026-04-21 19:40 | 20.97791 | -157.35519 | 13815 ft | 340 kts | 266° |
| 2026-04-21 19:40 | 20.97589 | -157.38014 | 13565 ft | 333 kts | 266° |
| 2026-04-21 19:40 | 20.97391 | -157.40466 | 13182 ft | 327 kts | 266° |
| 2026-04-21 19:40 | 20.97197 | -157.42867 | 12789 ft | 321 kts | 266° |
| 2026-04-21 19:41 | 20.97006 | -157.45224 | 12400 ft | 316 kts | 266° |
| 2026-04-21 19:41 | 20.96816 | -157.47574 | 12015 ft | 317 kts | 266° |
| 2026-04-21 19:41 | 20.96625 | -157.49930 | 11622 ft | 320 kts | 266° |
| 2026-04-21 19:41 | 20.96428 | -157.52345 | 11231 ft | 330 kts | 266° |
| 2026-04-21 19:42 | 20.96227 | -157.54801 | 10859 ft | 331 kts | 265° |
| 2026-04-21 19:42 | 20.96073 | -157.57202 | 10679 ft | 316 kts | 272° |
| 2026-04-21 19:42 | 20.96502 | -157.59447 | 10537 ft | 303 kts | 288° |
| 2026-04-21 19:42 | 20.97173 | -157.61535 | 10391 ft | 291 kts | 289° |
| 2026-04-21 19:43 | 20.97833 | -157.63550 | 10247 ft | 281 kts | 289° |
| 2026-04-21 19:43 | 20.98468 | -157.65489 | 10130 ft | 272 kts | 289° |
| 2026-04-21 19:43 | 20.99078 | -157.67369 | 10014 ft | 263 kts | 289° |
| 2026-04-21 19:43 | 20.99664 | -157.69182 | 9750 ft | 260 kts | 289° |
| 2026-04-21 19:44 | 21.00249 | -157.71004 | 9493 ft | 257 kts | 289° |
| 2026-04-21 19:44 | 21.00826 | -157.72807 | 9233 ft | 255 kts | 289° |
| 2026-04-21 19:44 | 21.01406 | -157.74621 | 8979 ft | 259 kts | 289° |
| 2026-04-21 19:44 | 21.01998 | -157.76477 | 8727 ft | 267 kts | 289° |
| 2026-04-21 19:45 | 21.02604 | -157.78379 | 8445 ft | 272 kts | 289° |
| 2026-04-21 19:45 | 21.03210 | -157.80285 | 8157 ft | 269 kts | 289° |
| 2026-04-21 19:45 | 21.03810 | -157.82171 | 7877 ft | 266 kts | 289° |
| 2026-04-21 19:45 | 21.04404 | -157.84040 | 7606 ft | 264 kts | 288° |
| 2026-04-21 19:46 | 21.04992 | -157.85893 | 7321 ft | 262 kts | 288° |
| 2026-04-21 19:46 | 21.05576 | -157.87730 | 7072 ft | 260 kts | 288° |
| 2026-04-21 19:46 | 21.06154 | -157.89553 | 6811 ft | 258 kts | 288° |
| 2026-04-21 19:46 | 21.06722 | -157.91343 | 6553 ft | 256 kts | 288° |
| 2026-04-21 19:47 | 21.07300 | -157.93168 | 6276 ft | 255 kts | 288° |
| 2026-04-21 19:47 | 21.07761 | -157.94990 | 6004 ft | 253 kts | 279° |
| 2026-04-21 19:47 | 21.07926 | -157.96833 | 5764 ft | 251 kts | 275° |
| 2026-04-21 19:47 | 21.08164 | -157.98677 | 5501 ft | 249 kts | 281° |
| 2026-04-21 19:48 | 21.08595 | -158.00464 | 5243 ft | 247 kts | 288° |
| 2026-04-21 19:48 | 21.09183 | -158.02188 | 4998 ft | 246 kts | 292° |
| 2026-04-21 19:48 | 21.09896 | -158.03874 | 4766 ft | 253 kts | 296° |
| 2026-04-21 19:48 | 21.10738 | -158.05565 | 4507 ft | 260 kts | 300° |
| 2026-04-21 19:49 | 21.11697 | -158.07205 | 4233 ft | 258 kts | 304° |
| 2026-04-21 19:49 | 21.12760 | -158.08744 | 3969 ft | 256 kts | 309° |
| 2026-04-21 19:49 | 21.13924 | -158.10176 | 3717 ft | 253 kts | 313° |
| 2026-04-21 19:49 | 21.15298 | -158.11275 | 3578 ft | 245 kts | 339° |
| 2026-04-21 19:50 | 21.16388 | -158.11493 | 3512 ft | 239 kts | 1° |
| 2026-04-21 19:50 | 21.18364 | -158.10658 | 3388 ft | 227 kts | 41° |
| 2026-04-21 19:50 | 21.19414 | -158.09427 | 3304 ft | 224 kts | 51° |
| 2026-04-21 19:50 | 21.20381 | -158.08110 | 3203 ft | 222 kts | 52° |
| 2026-04-21 19:51 | 21.21340 | -158.06800 | 2997 ft | 224 kts | 51° |
| 2026-04-21 19:51 | 21.22318 | -158.05500 | 2780 ft | 224 kts | 51° |
| 2026-04-21 19:51 | 21.23286 | -158.04195 | 2549 ft | 223 kts | 52° |
| 2026-04-21 19:51 | 21.24213 | -158.02905 | 2346 ft | 218 kts | 52° |
| 2026-04-21 19:52 | 21.25115 | -158.01631 | 2065 ft | 211 kts | 52° |
| 2026-04-21 19:52 | 21.25980 | -158.00408 | 1785 ft | 199 kts | 52° |
| 2026-04-21 19:52 | 21.26794 | -157.99269 | 1499 ft | 186 kts | 52° |
| 2026-04-21 19:52 | 21.27549 | -157.98194 | 1249 ft | 176 kts | 53° |
| 2026-04-21 19:53 | 21.28272 | -157.97163 | 1038 ft | 168 kts | 53° |
| 2026-04-21 19:53 | 21.28936 | -157.96215 | 849 ft | 155 kts | 53° |
| 2026-04-21 19:53 | 21.29578 | -157.95301 | 636 ft | 151 kts | 53° |
| 2026-04-21 19:53 | 21.30214 | -157.94393 | 428 ft | 154 kts | 53° |
| 2026-04-21 19:54 | 21.30854 | -157.93471 | 199 ft | 154 kts | 53° |
| 2026-04-21 19:54 | 21.31494 | -157.92576 | 42 ft | 146 kts | 53° |
| 2026-04-21 19:54 | 21.32037 | -157.91804 | 26 ft | 103 kts | 52° |
| 2026-04-21 19:54 | 21.32328 | -157.91420 | 24 ft | 41 kts | 31° |
| 2026-04-21 19:55 | 21.32593 | -157.91326 | 25 ft | 32 kts | 8° |
| 2026-04-21 19:55 | 21.32679 | -157.91329 | 24 ft | 12 kts | 316° |
| 2026-04-21 19:55 | 21.32692 | -157.91417 | 23 ft | 12 kts | 270° |
| 2026-04-21 19:55 | 21.32692 | -157.91521 | 23 ft | 16 kts | 270° |
| 2026-04-21 19:56 | 21.32692 | -157.91662 | 23 ft | 22 kts | 270° |
| 2026-04-21 19:56 | 21.32692 | -157.91832 | 23 ft | 18 kts | 276° |
| 2026-04-21 19:56 | 21.32789 | -157.91908 | 24 ft | 18 kts | 341° |
| 2026-04-21 19:56 | 21.32855 | -157.91942 | 23 ft | 10 kts | 319° |
| 2026-04-21 19:57 | 21.32880 | -157.91966 | 23 ft | 1 kts | 318° |
| 2026-04-21 19:57 | 21.32888 | -157.91974 | 29 ft | 1 kts | 318° |